createdAt,value
2018-01-08T00:02:07.856Z,12.68
2018-01-08T00:04:35.399Z,10.18
2018-01-08T00:07:02.992Z,10.40
2018-01-08T00:09:31.315Z,9.75
2018-01-08T00:11:58.880Z,11.63
2018-01-08T00:14:26.466Z,11.82
2018-01-08T00:16:54.044Z,12.15
2018-01-08T00:19:22.373Z,10.50
2018-01-08T00:21:49.967Z,11.25
2018-01-08T00:24:17.524Z,10.63
2018-01-08T00:26:45.081Z,11.50
2018-01-08T00:29:12.652Z,12.48
2018-01-08T00:31:40.209Z,12.25
2018-01-08T00:34:07.751Z,13.55
2018-01-08T00:36:35.330Z,11.63
2018-01-08T00:39:02.904Z,12.82
2018-01-08T00:41:31.225Z,12.13
2018-01-08T00:43:58.817Z,13.15
2018-01-08T00:46:26.369Z,11.85
2018-01-08T00:48:53.930Z,13.35
2018-01-08T00:51:21.510Z,12.90
2018-01-08T00:53:49.059Z,11.00
2018-01-08T00:56:16.627Z,12.30
2018-01-08T00:58:44.215Z,11.55
2018-01-08T01:01:11.774Z,12.90
2018-01-08T01:03:39.343Z,11.68
2018-01-08T01:06:06.887Z,11.43
2018-01-08T01:08:35.214Z,11.23
2018-01-08T01:11:02.803Z,11.02
2018-01-08T01:13:30.346Z,12.52
2018-01-08T01:15:57.907Z,10.68
2018-01-08T01:18:25.456Z,11.20
2018-01-08T01:20:53.009Z,11.43
2018-01-08T01:23:20.608Z,11.23
2018-01-08T01:25:48.953Z,11.25
2018-01-08T01:28:16.516Z,11.38
2018-01-08T01:30:44.094Z,11.30
2018-01-08T01:33:11.645Z,9.85
2018-01-08T01:35:39.215Z,10.98
2018-01-08T01:38:06.764Z,11.65
2018-01-08T01:40:34.330Z,10.48
2018-01-08T01:43:01.909Z,10.63
2018-01-08T01:45:30.243Z,10.75
2018-01-08T01:47:57.797Z,10.07
2018-01-08T01:50:25.364Z,10.75
2018-01-08T01:52:52.922Z,11.43
2018-01-08T01:55:20.510Z,10.75
2018-01-08T01:57:48.073Z,11.10
2018-01-08T02:00:16.393Z,10.02
2018-01-08T02:02:43.969Z,11.15
2018-01-08T02:05:11.544Z,8.40
2018-01-08T02:07:39.125Z,10.05
2018-01-08T02:10:06.673Z,9.95
2018-01-08T02:12:34.219Z,9.85
2018-01-08T02:15:01.796Z,10.95
2018-01-08T02:17:29.343Z,10.40
2018-01-08T02:19:56.916Z,11.80
2018-01-08T02:22:24.479Z,11.35
2018-01-08T02:24:52.037Z,10.30
2018-01-08T02:27:19.603Z,9.25
2018-01-08T02:29:47.171Z,11.68
2018-01-08T02:32:15.479Z,9.85
2018-01-08T02:34:43.070Z,10.50
2018-01-08T02:37:10.626Z,9.80
2018-01-08T02:39:38.175Z,10.32
2018-01-08T02:42:05.760Z,11.05
2018-01-08T02:44:33.302Z,10.68
2018-01-08T02:47:00.860Z,9.98
2018-01-08T02:49:28.441Z,10.30
2018-01-08T02:51:56.002Z,10.63
2018-01-08T02:54:23.561Z,9.02
2018-01-08T02:56:51.154Z,10.68
2018-01-08T02:59:19.476Z,9.80
2018-01-08T03:01:47.038Z,10.63
2018-01-08T03:04:14.594Z,9.95
2018-01-08T03:06:42.160Z,11.70
2018-01-08T03:09:09.736Z,10.10
2018-01-08T03:11:37.302Z,11.32
2018-01-08T03:14:04.856Z,10.07
2018-01-08T03:16:32.403Z,11.52
2018-01-08T03:18:59.994Z,11.27
2018-01-08T03:21:27.563Z,11.77
2018-01-08T03:23:55.907Z,10.70
2018-01-08T03:26:23.495Z,11.52
2018-01-08T03:28:51.818Z,10.88
2018-01-08T03:31:19.374Z,13.07
2018-01-08T03:33:46.968Z,14.38
2018-01-08T03:36:14.519Z,12.55
2018-01-08T03:38:42.087Z,12.70
2018-01-08T03:41:09.655Z,13.98
2018-01-08T03:43:37.214Z,13.35
2018-01-08T03:46:04.760Z,12.60
2018-01-08T03:48:32.363Z,11.90
2018-01-08T03:51:00.703Z,12.07
2018-01-08T03:53:28.256Z,12.15
2018-01-08T03:55:55.842Z,14.02
2018-01-08T03:58:24.887Z,11.57
2018-01-08T04:00:52.436Z,12.50
2018-01-08T04:03:20.032Z,13.15
2018-01-08T04:05:47.608Z,12.52
2018-01-08T04:08:15.161Z,13.68
2018-01-08T04:10:42.760Z,11.38
2018-01-08T04:13:11.076Z,11.65
2018-01-08T04:15:39.503Z,12.88
2018-01-08T04:18:07.845Z,13.05
2018-01-08T04:20:35.415Z,14.13
2018-01-08T04:23:02.979Z,13.43
2018-01-08T04:25:30.542Z,15.23
2018-01-08T04:27:58.110Z,11.85
2018-01-08T04:30:25.683Z,13.20
2018-01-08T04:32:54.021Z,13.40
2018-01-08T04:35:21.563Z,14.10
2018-01-08T04:37:49.136Z,13.62
2018-01-08T04:40:16.699Z,14.05
2018-01-08T04:42:44.268Z,13.30
2018-01-08T04:45:11.815Z,14.73
2018-01-08T04:47:40.267Z,12.55
2018-01-08T04:50:07.843Z,14.10
2018-01-08T04:52:35.415Z,15.15
2018-01-08T04:55:02.993Z,14.00
2018-01-08T04:57:30.568Z,14.32
2018-01-08T04:59:58.907Z,15.02
2018-01-08T05:02:26.493Z,13.30
2018-01-08T05:04:54.063Z,14.02
2018-01-08T05:07:21.617Z,13.95
2018-01-08T05:09:49.199Z,13.88
2018-01-08T05:12:17.512Z,14.52
2018-01-08T05:14:45.074Z,13.62
2018-01-08T05:17:12.834Z,13.60
2018-01-08T05:19:40.390Z,13.70
2018-01-08T05:22:07.963Z,13.40
2018-01-08T05:24:35.545Z,13.80
2018-01-08T05:27:03.091Z,12.88
2018-01-08T05:29:30.659Z,13.00
2018-01-08T05:31:58.237Z,14.13
2018-01-08T05:34:25.797Z,13.23
2018-01-08T05:36:53.339Z,13.82
2018-01-08T05:39:20.931Z,13.27
2018-01-08T05:41:49.257Z,13.23
2018-01-08T05:44:16.824Z,14.65
2018-01-08T05:46:44.419Z,13.43
2018-01-08T05:49:12.763Z,12.90
2018-01-08T05:51:40.340Z,11.55
2018-01-08T05:54:07.907Z,12.40
2018-01-08T05:56:35.448Z,12.68
2018-01-08T05:59:03.012Z,13.95
2018-01-08T06:01:30.604Z,17.73
2018-01-08T06:03:58.925Z,15.20
2018-01-08T06:06:26.507Z,18.02
2018-01-08T06:08:54.102Z,17.65
2018-01-08T06:11:22.524Z,15.95
2018-01-08T06:13:50.063Z,14.60
2018-01-08T06:16:17.670Z,14.95
2018-01-08T06:18:45.220Z,18.55
2018-01-08T06:21:12.764Z,16.15
2018-01-08T06:23:40.361Z,15.32
2018-01-08T06:26:07.947Z,16.92
2018-01-08T06:28:36.284Z,15.82
2018-01-08T06:31:03.924Z,16.35
2018-01-08T06:33:31.457Z,15.90
2018-01-08T06:35:59.966Z,15.98
2018-01-08T06:38:27.536Z,16.58
2018-01-08T06:40:55.075Z,16.10
2018-01-08T06:43:22.634Z,15.80
2018-01-08T06:45:50.223Z,15.27
2018-01-08T06:48:17.767Z,16.27
2018-01-08T06:50:45.311Z,13.85
2018-01-08T06:53:12.899Z,14.07
2018-01-08T06:55:40.471Z,13.80
2018-01-08T06:58:08.039Z,13.13
2018-01-08T07:00:35.636Z,14.30
2018-01-08T07:03:03.203Z,14.35
2018-01-08T07:05:30.754Z,12.80
2018-01-08T07:07:58.332Z,14.70
2018-01-08T07:10:25.885Z,13.73
2018-01-08T07:12:53.434Z,14.57
2018-01-08T07:15:20.999Z,14.10
2018-01-08T07:17:48.572Z,15.50
2018-01-08T07:20:16.134Z,14.60
2018-01-08T07:22:43.699Z,14.20
2018-01-08T07:25:11.258Z,13.02
2018-01-08T07:27:39.436Z,12.70
2018-01-08T07:30:07.027Z,12.80
2018-01-08T07:32:34.575Z,14.23
2018-01-08T07:35:02.119Z,13.75
2018-01-08T07:37:29.701Z,13.90
2018-01-08T07:39:57.251Z,13.57
2018-01-08T07:42:24.805Z,13.68
2018-01-08T07:44:52.376Z,13.90
2018-01-08T07:47:19.923Z,14.45
2018-01-08T07:49:47.475Z,13.68
2018-01-08T07:52:15.058Z,15.65
2018-01-08T07:54:42.607Z,12.82
2018-01-08T07:57:10.175Z,13.20
2018-01-08T07:59:37.758Z,12.23
2018-01-08T08:02:06.118Z,11.40
2018-01-08T08:04:33.646Z,12.43
2018-01-08T08:07:01.215Z,12.75
2018-01-08T08:09:28.769Z,12.07
2018-01-08T08:11:57.452Z,14.52
2018-01-08T08:14:25.046Z,13.20
2018-01-08T08:16:52.605Z,13.27
2018-01-08T08:19:20.157Z,12.15
2018-01-08T08:21:47.751Z,13.55
2018-01-08T08:24:16.069Z,11.25
2018-01-08T08:26:43.611Z,11.80
2018-01-08T08:29:11.184Z,12.55
2018-01-08T08:31:38.745Z,13.07
2018-01-08T08:34:06.287Z,15.00
2018-01-08T08:36:33.869Z,11.05
2018-01-08T08:39:01.444Z,11.77
2018-01-08T08:41:28.997Z,11.35
2018-01-08T08:43:56.581Z,12.25
2018-01-08T08:46:24.128Z,12.80
2018-01-08T08:48:51.670Z,11.43
2018-01-08T08:51:19.240Z,12.52
2018-01-08T08:53:46.779Z,13.05
2018-01-08T08:56:14.321Z,12.18
2018-01-08T08:58:41.897Z,12.27
2018-01-08T09:01:09.462Z,13.85
2018-01-08T09:03:37.099Z,12.35
2018-01-08T09:06:05.435Z,12.25
2018-01-08T09:08:32.983Z,12.85
2018-01-08T09:11:00.538Z,11.40
2018-01-08T09:13:28.121Z,13.20
2018-01-08T09:15:56.443Z,10.90
2018-01-08T09:18:23.991Z,12.20
2018-01-08T09:20:51.568Z,12.30
2018-01-08T09:23:19.122Z,11.12
2018-01-08T09:25:46.682Z,12.15
2018-01-08T09:28:14.251Z,11.77
2018-01-08T09:30:41.809Z,12.00
2018-01-08T09:33:09.369Z,11.40
2018-01-08T09:35:36.953Z,11.15
2018-01-08T09:38:04.538Z,11.52
2018-01-08T09:40:32.092Z,11.82
2018-01-08T09:43:00.445Z,11.70
2018-01-08T09:45:28.001Z,11.35
2018-01-08T09:47:55.569Z,11.57
2018-01-08T09:50:23.135Z,12.35
2018-01-08T09:52:50.693Z,11.50
2018-01-08T09:55:18.253Z,11.43
2018-01-08T09:57:45.837Z,11.95
2018-01-08T10:00:14.175Z,12.90
2018-01-08T10:02:53.567Z,11.85
2018-01-08T10:05:33.115Z,11.48
2018-01-08T10:08:12.659Z,12.35
2018-01-08T10:10:52.058Z,11.63
2018-01-08T10:13:31.439Z,11.18
2018-01-08T10:16:10.862Z,10.40
2018-01-08T10:18:37.978Z,11.55
2018-01-08T10:21:05.519Z,12.37
2018-01-08T10:23:33.096Z,11.40
2018-01-08T10:26:00.673Z,12.20
2018-01-08T10:28:28.998Z,10.98
2018-01-08T10:30:56.550Z,9.85
2018-01-08T10:33:24.119Z,10.50
2018-01-08T10:35:51.665Z,10.20
2018-01-08T10:38:19.232Z,9.85
2018-01-08T10:40:46.814Z,10.40
2018-01-08T10:43:20.119Z,13.18
2018-01-08T10:45:53.480Z,10.50
2018-01-08T10:48:26.774Z,9.55
2018-01-08T10:50:59.943Z,10.55
2018-01-08T10:53:27.498Z,10.45
2018-01-08T10:55:55.057Z,13.55
2018-01-08T10:58:22.644Z,13.90
2018-01-08T11:00:55.838Z,12.48
2018-01-08T11:03:29.230Z,12.65
2018-01-08T11:05:56.789Z,13.27
2018-01-08T11:08:24.332Z,12.75
2018-01-08T11:10:51.922Z,12.75
2018-01-08T11:13:19.487Z,13.52
2018-01-08T11:15:47.060Z,12.80
2018-01-08T11:18:14.645Z,14.48
2018-01-08T11:20:42.974Z,15.18
2018-01-08T11:23:10.545Z,12.63
2018-01-08T11:25:38.140Z,13.20
2018-01-08T11:28:06.465Z,11.73
2018-01-08T11:30:34.028Z,12.80
2018-01-08T11:33:01.621Z,13.52
2018-01-08T11:35:29.191Z,12.90
2018-01-08T11:37:56.763Z,14.55
2018-01-08T11:40:25.101Z,13.18
2018-01-08T11:42:52.661Z,15.55
2018-01-08T11:45:20.221Z,13.50
2018-01-08T11:47:47.787Z,13.85
2018-01-08T11:50:15.340Z,14.25
2018-01-08T11:52:42.907Z,12.25
2018-01-08T11:55:10.518Z,13.75
2018-01-08T11:57:38.071Z,13.85
2018-01-08T12:00:05.647Z,13.05
2018-01-08T12:02:33.237Z,12.57
2018-01-08T12:05:00.785Z,13.02
2018-01-08T12:07:28.328Z,13.62
2018-01-08T12:09:55.896Z,14.07
2018-01-08T12:12:23.471Z,13.80
2018-01-08T12:14:51.020Z,13.10
2018-01-08T12:17:18.608Z,12.85
2018-01-08T12:19:46.180Z,12.68
2018-01-08T12:22:13.737Z,15.30
2018-01-08T12:24:41.317Z,12.90
2018-01-08T12:27:09.645Z,15.55
2018-01-08T12:29:37.201Z,13.40
2018-01-08T12:32:04.802Z,13.95
2018-01-08T12:34:33.137Z,14.35
2018-01-08T12:37:00.702Z,14.63
2018-01-08T12:39:28.276Z,12.98
2018-01-08T12:41:55.829Z,12.98
2018-01-08T12:44:23.407Z,14.27
2018-01-08T12:46:51.008Z,13.48
2018-01-08T12:49:18.566Z,12.57
2018-01-08T12:51:46.140Z,14.65
2018-01-08T12:54:13.735Z,13.62
2018-01-08T12:56:41.300Z,15.23
2018-01-08T12:59:08.857Z,13.68
2018-01-08T13:01:36.446Z,14.57
2018-01-08T13:04:04.769Z,14.80
2018-01-08T13:06:32.335Z,14.93
2018-01-08T13:08:59.935Z,14.18
2018-01-08T13:11:28.288Z,14.82
2018-01-08T13:13:55.875Z,15.05
2018-01-08T13:16:24.406Z,15.20
2018-01-08T13:18:51.979Z,14.27
2018-01-08T13:21:20.315Z,16.20
2018-01-08T13:23:47.912Z,16.00
2018-01-08T13:26:15.465Z,14.85
2018-01-08T13:28:43.026Z,14.68
2018-01-08T13:31:10.612Z,15.73
2018-01-08T13:33:38.185Z,16.02
2018-01-08T13:36:05.759Z,15.48
2018-01-08T13:38:34.095Z,16.23
2018-01-08T13:41:01.673Z,13.70
2018-01-08T13:43:29.252Z,14.10
2018-01-08T13:45:57.597Z,14.68
2018-01-08T13:48:25.136Z,15.63
2018-01-08T13:50:52.698Z,15.63
2018-01-08T13:53:20.273Z,15.90
2018-01-08T13:55:47.823Z,17.50
2018-01-08T13:58:15.368Z,16.85
2018-01-08T14:00:42.953Z,16.10
2018-01-08T14:03:10.503Z,14.10
2018-01-08T14:05:38.048Z,14.32
2018-01-08T14:08:05.631Z,14.40
2018-01-08T14:10:33.189Z,13.73
2018-01-08T14:13:00.763Z,13.43
2018-01-08T14:15:28.343Z,12.00
2018-01-08T14:17:56.652Z,12.93
2018-01-08T14:20:24.199Z,12.10
2018-01-08T14:22:51.799Z,11.90
2018-01-08T14:25:19.362Z,12.68
2018-01-08T14:27:46.931Z,14.02
2018-01-08T14:30:14.509Z,13.05
2018-01-08T14:32:42.065Z,12.27
2018-01-08T14:35:11.022Z,12.40
2018-01-08T14:37:39.344Z,10.88
2018-01-08T14:40:07.678Z,12.05
2018-01-08T14:42:35.253Z,12.37
2018-01-08T14:45:02.819Z,12.73
2018-01-08T14:47:30.371Z,11.27
2018-01-08T14:49:57.933Z,10.70
2018-01-08T14:52:25.499Z,10.95
2018-01-08T14:54:53.051Z,14.45
2018-01-08T14:57:20.614Z,12.55
2018-01-08T14:59:48.189Z,11.82
2018-01-08T15:02:15.745Z,10.90
2018-01-08T15:04:43.295Z,10.73
2018-01-08T15:07:10.860Z,11.60
2018-01-08T15:09:38.435Z,11.20
2018-01-08T15:12:05.993Z,11.15
2018-01-08T15:14:33.573Z,10.98
2018-01-08T15:17:01.153Z,11.65
2018-01-08T15:19:28.718Z,11.12
2018-01-08T15:21:56.297Z,10.85
2018-01-08T15:24:23.844Z,10.95
2018-01-08T15:26:51.392Z,10.60
2018-01-08T15:29:18.978Z,10.90
2018-01-08T15:31:46.531Z,11.02
2018-01-08T15:34:14.099Z,10.43
2018-01-08T15:36:41.676Z,9.65
2018-01-08T15:39:09.248Z,10.15
2018-01-08T15:41:36.813Z,10.40
2018-01-08T15:44:04.388Z,9.35
2018-01-08T15:46:32.701Z,10.98
2018-01-08T15:49:00.242Z,9.15
2018-01-08T15:51:27.821Z,10.75
2018-01-08T15:53:55.383Z,12.55
2018-01-08T15:56:22.940Z,8.90
2018-01-08T15:58:50.507Z,10.68
2018-01-08T16:01:18.061Z,12.15
2018-01-08T16:03:45.636Z,13.52
2018-01-08T16:06:13.264Z,19.65
2018-01-08T16:08:40.821Z,17.45
2018-01-08T16:11:08.377Z,14.07
2018-01-08T16:13:35.984Z,12.52
2018-01-08T16:16:03.560Z,12.32
2018-01-08T16:18:31.126Z,14.15
2018-01-08T16:20:58.740Z,16.58
2018-01-08T16:23:26.315Z,20.40
2018-01-08T16:25:53.863Z,14.10
2018-01-08T16:28:21.431Z,16.92
2018-01-08T16:30:49.003Z,19.60
2018-01-08T16:33:16.562Z,15.02
2018-01-08T16:35:44.138Z,13.88
2018-01-08T16:38:11.687Z,23.30
2018-01-08T16:40:39.241Z,21.58
2018-01-08T16:43:06.825Z,22.87
2018-01-08T16:45:35.148Z,24.00
2018-01-08T16:48:03.468Z,22.75
2018-01-08T16:50:31.068Z,19.42
2018-01-08T16:52:58.636Z,16.95
2018-01-08T16:55:26.191Z,17.23
2018-01-08T16:57:53.759Z,15.30
2018-01-08T17:00:21.318Z,14.80
2018-01-08T17:02:48.864Z,13.88
2018-01-08T17:05:16.451Z,14.40
2018-01-08T17:07:44.012Z,14.20
2018-01-08T17:10:11.579Z,15.95
2018-01-08T17:12:39.175Z,17.48
2018-01-08T17:15:07.504Z,15.85
2018-01-08T17:17:35.079Z,22.33
2018-01-08T17:20:02.651Z,17.42
2018-01-08T17:22:30.209Z,14.02
2018-01-08T17:24:57.770Z,13.95
2018-01-08T17:27:25.361Z,16.45
2018-01-08T17:29:53.704Z,14.52
2018-01-08T17:32:21.269Z,14.15
2018-01-08T17:34:48.876Z,13.32
2018-01-08T17:37:16.433Z,13.60
2018-01-08T17:39:44.763Z,12.68
2018-01-08T17:42:12.354Z,13.95
2018-01-08T17:44:40.664Z,13.62
2018-01-08T17:47:08.237Z,12.73
2018-01-08T17:49:38.165Z,13.15
2018-01-08T17:52:05.726Z,12.63
2018-01-08T17:54:33.290Z,13.80
2018-01-08T17:57:00.874Z,13.95
2018-01-08T17:59:28.416Z,17.17
2018-01-08T18:01:55.983Z,13.73
2018-01-08T18:04:23.625Z,14.32
2018-01-08T18:06:51.127Z,15.75
2018-01-08T18:09:19.435Z,14.18
2018-01-08T18:11:47.001Z,11.95
2018-01-08T18:14:14.572Z,12.05
2018-01-08T18:16:42.134Z,11.23
2018-01-08T18:19:09.728Z,12.23
2018-01-08T18:21:37.427Z,12.18
2018-01-08T18:24:04.986Z,11.18
2018-01-08T18:26:32.561Z,11.30
2018-01-08T18:29:00.123Z,11.10
2018-01-08T18:31:27.688Z,11.63
2018-01-08T18:33:55.265Z,11.50
2018-01-08T18:36:22.807Z,11.45
2018-01-08T18:38:50.364Z,15.27
2018-01-08T18:41:17.959Z,11.52
2018-01-08T18:43:45.521Z,13.13
2018-01-08T18:46:13.096Z,11.52
2018-01-08T18:48:41.432Z,13.02
2018-01-08T18:51:08.989Z,12.80
2018-01-08T18:53:36.562Z,12.02
2018-01-08T18:56:04.143Z,11.75
2018-01-08T18:58:31.704Z,12.93
2018-01-08T19:00:59.247Z,12.23
2018-01-08T19:03:26.815Z,12.13
2018-01-08T19:05:54.401Z,12.77
2018-01-08T19:08:22.825Z,12.60
2018-01-08T19:10:50.401Z,14.20
2018-01-08T19:13:19.589Z,22.15
2018-01-08T19:15:48.695Z,12.25
2018-01-08T19:18:17.974Z,15.27
2018-01-08T19:20:47.716Z,13.40
2018-01-08T19:23:16.732Z,12.85
2018-01-08T19:25:44.385Z,14.27
2018-01-08T19:28:12.708Z,16.90
2018-01-08T19:30:40.256Z,18.55
2018-01-08T19:33:07.837Z,27.92
2018-01-08T19:35:35.502Z,19.58
2018-01-08T19:38:03.044Z,17.98
2018-01-08T19:40:30.626Z,19.98
2018-01-08T19:45:34.475Z,20.95
2018-01-08T19:48:02.027Z,14.85
2018-01-08T19:50:29.592Z,16.95
2018-01-08T19:52:57.191Z,16.42
2018-01-08T19:55:24.759Z,13.60
2018-01-08T19:57:52.322Z,14.15
2018-01-08T20:00:19.897Z,14.98
2018-01-08T20:02:47.462Z,13.85
2018-01-08T20:05:15.022Z,14.43
2018-01-08T20:07:42.620Z,13.88
2018-01-08T20:10:10.178Z,14.85
2018-01-08T20:12:37.719Z,14.87
2018-01-08T20:15:05.306Z,13.23
2018-01-08T20:17:33.652Z,14.40
2018-01-08T20:20:01.228Z,12.73
2018-01-08T20:22:28.827Z,12.95
2018-01-08T20:24:56.368Z,13.20
2018-01-08T20:27:24.693Z,11.85
2018-01-08T20:29:52.288Z,12.37
2018-01-08T20:32:19.839Z,12.37
2018-01-08T20:34:47.389Z,10.13
2018-01-08T20:37:14.981Z,11.60
2018-01-08T20:39:43.297Z,11.05
2018-01-08T20:42:10.934Z,11.65
2018-01-08T20:44:39.251Z,11.25
2018-01-08T20:47:06.810Z,11.48
2018-01-08T20:49:35.142Z,11.32
2018-01-08T20:52:03.479Z,10.77
2018-01-08T20:54:31.053Z,11.63
2018-01-08T20:56:58.610Z,11.60
2018-01-08T20:59:26.190Z,11.30
2018-01-08T21:01:54.518Z,11.18
2018-01-08T21:04:22.098Z,12.02
2018-01-08T21:06:49.737Z,11.30
2018-01-08T21:09:17.316Z,11.02
2018-01-08T21:11:44.908Z,10.55
2018-01-08T21:14:13.220Z,12.60
2018-01-08T21:16:40.792Z,11.25
2018-01-08T21:19:08.360Z,11.60
2018-01-08T21:21:35.917Z,11.35
2018-01-08T21:24:03.496Z,11.30
2018-01-08T21:26:31.063Z,11.65
2018-01-08T21:28:58.607Z,11.20
2018-01-08T21:31:26.151Z,10.75
2018-01-08T21:33:53.743Z,9.15
2018-01-08T21:36:21.316Z,9.85
2018-01-08T21:38:48.887Z,12.55
2018-01-08T21:41:17.228Z,10.90
2018-01-08T21:43:44.784Z,10.00
2018-01-08T21:46:12.346Z,9.63
2018-01-08T21:48:42.482Z,10.25
2018-01-08T21:51:10.123Z,14.32
2018-01-08T21:53:37.686Z,12.70
2018-01-08T21:56:05.256Z,14.60
2018-01-08T21:58:32.824Z,13.65
2018-01-08T22:01:01.871Z,13.10
2018-01-08T22:03:29.467Z,12.50
2018-01-08T22:05:57.037Z,11.50
2018-01-08T22:08:24.598Z,13.85
2018-01-08T22:10:52.197Z,14.60
2018-01-08T22:13:19.749Z,13.38
2018-01-08T22:15:47.298Z,13.00
2018-01-08T22:18:15.658Z,14.23
2018-01-08T22:20:43.243Z,13.23
2018-01-08T22:23:11.583Z,14.40
2018-01-08T22:25:39.217Z,16.52
2018-01-08T22:28:06.774Z,14.10
2018-01-08T22:30:34.335Z,14.77
2018-01-08T22:33:01.917Z,16.30
2018-01-08T22:35:30.351Z,15.90
2018-01-08T22:37:57.914Z,14.45
2018-01-08T22:40:25.501Z,14.75
2018-01-08T22:42:53.057Z,16.10
2018-01-08T22:45:20.598Z,13.32
2018-01-08T22:47:48.169Z,13.85
2018-01-08T22:50:15.730Z,15.88
2018-01-08T22:52:43.285Z,14.65
2018-01-08T22:55:10.865Z,13.68
2018-01-08T22:57:39.096Z,15.23
2018-01-08T23:00:07.426Z,14.68
2018-01-08T23:02:34.999Z,14.00
2018-01-08T23:05:03.336Z,13.70
2018-01-08T23:07:30.889Z,12.52
2018-01-08T23:09:58.457Z,14.82
2018-01-08T23:12:26.003Z,15.10
2018-01-08T23:14:53.546Z,14.27
2018-01-08T23:17:21.880Z,13.45
2018-01-08T23:19:49.438Z,13.38
2018-01-08T23:22:16.997Z,14.23
2018-01-08T23:24:44.590Z,12.68
2018-01-08T23:27:12.910Z,13.50
2018-01-08T23:29:41.521Z,13.77
2018-01-08T23:32:09.077Z,13.98
2018-01-08T23:34:36.652Z,12.77
2018-01-08T23:37:04.218Z,12.15
2018-01-08T23:39:31.784Z,13.35
2018-01-08T23:41:59.345Z,12.52
2018-01-08T23:44:26.906Z,13.05
2018-01-08T23:46:55.240Z,13.88
2018-01-08T23:49:24.808Z,13.48
2018-01-08T23:51:53.137Z,14.32
2018-01-08T23:54:22.576Z,13.00
2018-01-08T23:56:50.899Z,11.75
2018-01-08T23:59:18.447Z,11.95
